sensor_id;sensor_type;location;lat;lon;timestamp;P1;durP1;ratioP1;P2;durP2;ratioP2
74900;SDS011;63461;51.416;6.758;2023-03-01T00:02:01;13.93;;;5.70;;
74900;SDS011;63461;51.416;6.758;2023-03-01T00:04:26;12.70;;;6.00;;
74900;SDS011;63461;51.416;6.758;2023-03-01T00:06:53;11.97;;;5.77;;
74900;SDS011;63461;51.416;6.758;2023-03-01T00:09:19;11.60;;;6.00;;
74900;SDS011;63461;51.416;6.758;2023-03-01T00:11:44;12.23;;;5.93;;
74900;SDS011;63461;51.416;6.758;2023-03-01T00:14:11;18.10;;;5.90;;
74900;SDS011;63461;51.416;6.758;2023-03-01T00:16:41;14.33;;;5.87;;
74900;SDS011;63461;51.416;6.758;2023-03-01T00:19:15;15.03;;;6.17;;
74900;SDS011;63461;51.416;6.758;2023-03-01T00:21:43;15.40;;;5.70;;
74900;SDS011;63461;51.416;6.758;2023-03-01T00:24:09;9.87;;;5.40;;
74900;SDS011;63461;51.416;6.758;2023-03-01T00:26:35;13.77;;;5.90;;
74900;SDS011;63461;51.416;6.758;2023-03-01T00:29:02;10.97;;;5.57;;
74900;SDS011;63461;51.416;6.758;2023-03-01T00:31:28;11.60;;;5.50;;
74900;SDS011;63461;51.416;6.758;2023-03-01T00:33:57;13.07;;;6.30;;
74900;SDS011;63461;51.416;6.758;2023-03-01T00:36:28;11.57;;;6.00;;
74900;SDS011;63461;51.416;6.758;2023-03-01T00:38:56;14.33;;;6.03;;
74900;SDS011;63461;51.416;6.758;2023-03-01T00:41:22;12.37;;;6.03;;
74900;SDS011;63461;51.416;6.758;2023-03-01T00:43:51;12.77;;;5.87;;
74900;SDS011;63461;51.416;6.758;2023-03-01T00:46:19;12.53;;;6.07;;
74900;SDS011;63461;51.416;6.758;2023-03-01T00:48:48;12.77;;;6.10;;
74900;SDS011;63461;51.416;6.758;2023-03-01T00:51:16;14.10;;;6.00;;
74900;SDS011;63461;51.416;6.758;2023-03-01T00:53:43;12.87;;;6.43;;
74900;SDS011;63461;51.416;6.758;2023-03-01T00:56:11;14.90;;;6.50;;
74900;SDS011;63461;51.416;6.758;2023-03-01T00:58:38;12.27;;;6.23;;
74900;SDS011;63461;51.416;6.758;2023-03-01T01:01:08;12.23;;;6.50;;
74900;SDS011;63461;51.416;6.758;2023-03-01T01:03:46;12.23;;;5.87;;
74900;SDS011;63461;51.416;6.758;2023-03-01T01:06:14;9.33;;;6.00;;
74900;SDS011;63461;51.416;6.758;2023-03-01T01:08:44;13.10;;;6.03;;
74900;SDS011;63461;51.416;6.758;2023-03-01T01:11:11;14.00;;;6.40;;
74900;SDS011;63461;51.416;6.758;2023-03-01T01:13:37;12.60;;;6.33;;
74900;SDS011;63461;51.416;6.758;2023-03-01T01:16:04;11.63;;;6.00;;
74900;SDS011;63461;51.416;6.758;2023-03-01T01:18:30;14.13;;;6.87;;
74900;SDS011;63461;51.416;6.758;2023-03-01T01:20:57;13.67;;;6.23;;
74900;SDS011;63461;51.416;6.758;2023-03-01T01:23:22;11.13;;;6.37;;
74900;SDS011;63461;51.416;6.758;2023-03-01T01:25:48;15.10;;;6.00;;
74900;SDS011;63461;51.416;6.758;2023-03-01T01:28:14;14.63;;;6.30;;
74900;SDS011;63461;51.416;6.758;2023-03-01T01:30:40;11.90;;;6.33;;
74900;SDS011;63461;51.416;6.758;2023-03-01T01:33:05;13.93;;;6.83;;
74900;SDS011;63461;51.416;6.758;2023-03-01T01:35:31;15.03;;;6.80;;
74900;SDS011;63461;51.416;6.758;2023-03-01T01:37:57;12.30;;;6.50;;
74900;SDS011;63461;51.416;6.758;2023-03-01T01:40:23;12.10;;;6.30;;
74900;SDS011;63461;51.416;6.758;2023-03-01T01:42:48;12.83;;;6.13;;
74900;SDS011;63461;51.416;6.758;2023-03-01T01:45:33;17.13;;;6.93;;
74900;SDS011;63461;51.416;6.758;2023-03-01T01:48:02;14.00;;;6.23;;
74900;SDS011;63461;51.416;6.758;2023-03-01T01:50:31;17.07;;;6.63;;
74900;SDS011;63461;51.416;6.758;2023-03-01T01:53:05;12.37;;;6.60;;
74900;SDS011;63461;51.416;6.758;2023-03-01T01:55:39;13.10;;;6.90;;
74900;SDS011;63461;51.416;6.758;2023-03-01T01:58:10;14.43;;;6.27;;
74900;SDS011;63461;51.416;6.758;2023-03-01T02:00:39;14.60;;;6.67;;
74900;SDS011;63461;51.416;6.758;2023-03-01T02:03:07;13.07;;;6.87;;
74900;SDS011;63461;51.416;6.758;2023-03-01T02:08:04;15.47;;;6.67;;
74900;SDS011;63461;51.416;6.758;2023-03-01T02:10:30;13.30;;;6.70;;
74900;SDS011;63461;51.416;6.758;2023-03-01T02:12:58;16.63;;;6.20;;
74900;SDS011;63461;51.416;6.758;2023-03-01T02:15:25;14.03;;;6.37;;
74900;SDS011;63461;51.416;6.758;2023-03-01T02:17:52;11.20;;;6.20;;
74900;SDS011;63461;51.416;6.758;2023-03-01T02:20:25;15.03;;;6.43;;
74900;SDS011;63461;51.416;6.758;2023-03-01T02:22:57;15.73;;;6.53;;
74900;SDS011;63461;51.416;6.758;2023-03-01T02:25:27;14.50;;;6.33;;
74900;SDS011;63461;51.416;6.758;2023-03-01T02:30:47;14.60;;;6.33;;
74900;SDS011;63461;51.416;6.758;2023-03-01T02:33:34;13.77;;;6.33;;
74900;SDS011;63461;51.416;6.758;2023-03-01T02:36:03;12.27;;;6.47;;
74900;SDS011;63461;51.416;6.758;2023-03-01T02:38:33;13.87;;;6.70;;
74900;SDS011;63461;51.416;6.758;2023-03-01T02:40:58;16.63;;;6.47;;
74900;SDS011;63461;51.416;6.758;2023-03-01T02:43:27;13.50;;;6.87;;
74900;SDS011;63461;51.416;6.758;2023-03-01T02:46:02;16.47;;;6.80;;
74900;SDS011;63461;51.416;6.758;2023-03-01T02:49:16;13.50;;;6.53;;
74900;SDS011;63461;51.416;6.758;2023-03-01T02:51:41;16.00;;;6.77;;
74900;SDS011;63461;51.416;6.758;2023-03-01T02:54:21;15.80;;;7.57;;
74900;SDS011;63461;51.416;6.758;2023-03-01T02:57:08;16.87;;;7.33;;
74900;SDS011;63461;51.416;6.758;2023-03-01T02:59:35;13.47;;;7.00;;
74900;SDS011;63461;51.416;6.758;2023-03-01T03:02:06;12.90;;;7.13;;
74900;SDS011;63461;51.416;6.758;2023-03-01T03:04:32;14.87;;;7.13;;
74900;SDS011;63461;51.416;6.758;2023-03-01T03:06:59;14.67;;;7.37;;
74900;SDS011;63461;51.416;6.758;2023-03-01T03:09:25;13.33;;;6.17;;
74900;SDS011;63461;51.416;6.758;2023-03-01T03:11:51;17.30;;;6.87;;
74900;SDS011;63461;51.416;6.758;2023-03-01T03:14:17;13.17;;;7.20;;
74900;SDS011;63461;51.416;6.758;2023-03-01T03:16:46;13.87;;;6.70;;
74900;SDS011;63461;51.416;6.758;2023-03-01T03:19:14;14.00;;;7.00;;
74900;SDS011;63461;51.416;6.758;2023-03-01T03:21:44;13.40;;;7.03;;
74900;SDS011;63461;51.416;6.758;2023-03-01T03:24:10;16.97;;;7.00;;
74900;SDS011;63461;51.416;6.758;2023-03-01T03:26:36;14.43;;;7.00;;
74900;SDS011;63461;51.416;6.758;2023-03-01T03:29:02;18.63;;;7.23;;
74900;SDS011;63461;51.416;6.758;2023-03-01T03:31:28;16.73;;;7.10;;
74900;SDS011;63461;51.416;6.758;2023-03-01T03:33:54;15.03;;;7.33;;
74900;SDS011;63461;51.416;6.758;2023-03-01T03:36:21;13.60;;;7.37;;
74900;SDS011;63461;51.416;6.758;2023-03-01T03:38:48;15.17;;;7.07;;
74900;SDS011;63461;51.416;6.758;2023-03-01T03:41:14;15.10;;;6.60;;
74900;SDS011;63461;51.416;6.758;2023-03-01T03:43:41;15.07;;;7.03;;
74900;SDS011;63461;51.416;6.758;2023-03-01T03:46:09;20.80;;;6.83;;
74900;SDS011;63461;51.416;6.758;2023-03-01T03:48:37;15.97;;;7.63;;
74900;SDS011;63461;51.416;6.758;2023-03-01T03:51:09;13.83;;;6.80;;
74900;SDS011;63461;51.416;6.758;2023-03-01T03:53:39;13.53;;;6.73;;
74900;SDS011;63461;51.416;6.758;2023-03-01T03:56:06;13.73;;;6.90;;
74900;SDS011;63461;51.416;6.758;2023-03-01T03:58:32;13.83;;;6.70;;
74900;SDS011;63461;51.416;6.758;2023-03-01T04:00:58;17.20;;;7.10;;
74900;SDS011;63461;51.416;6.758;2023-03-01T04:03:27;12.53;;;6.40;;
74900;SDS011;63461;51.416;6.758;2023-03-01T04:05:53;14.57;;;6.03;;
74900;SDS011;63461;51.416;6.758;2023-03-01T04:08:22;15.67;;;7.23;;
74900;SDS011;63461;51.416;6.758;2023-03-01T04:10:49;15.77;;;7.03;;
74900;SDS011;63461;51.416;6.758;2023-03-01T04:13:18;14.10;;;6.83;;
74900;SDS011;63461;51.416;6.758;2023-03-01T04:15:45;19.87;;;7.00;;
74900;SDS011;63461;51.416;6.758;2023-03-01T04:18:13;17.20;;;6.70;;
74900;SDS011;63461;51.416;6.758;2023-03-01T04:20:40;14.13;;;6.77;;
74900;SDS011;63461;51.416;6.758;2023-03-01T04:23:08;15.47;;;7.00;;
74900;SDS011;63461;51.416;6.758;2023-03-01T04:25:38;16.33;;;7.60;;
74900;SDS011;63461;51.416;6.758;2023-03-01T04:28:06;14.70;;;6.90;;
74900;SDS011;63461;51.416;6.758;2023-03-01T04:30:33;14.87;;;7.00;;
74900;SDS011;63461;51.416;6.758;2023-03-01T04:33:07;15.07;;;6.80;;
74900;SDS011;63461;51.416;6.758;2023-03-01T04:35:35;8.30;;;4.33;;
74900;SDS011;63461;51.416;6.758;2023-03-01T04:38:02;18.00;;;7.47;;
74900;SDS011;63461;51.416;6.758;2023-03-01T04:40:29;15.90;;;7.03;;
74900;SDS011;63461;51.416;6.758;2023-03-01T04:42:55;14.73;;;6.63;;
74900;SDS011;63461;51.416;6.758;2023-03-01T04:45:21;17.70;;;7.33;;
74900;SDS011;63461;51.416;6.758;2023-03-01T04:47:47;16.93;;;7.70;;
74900;SDS011;63461;51.416;6.758;2023-03-01T04:50:15;16.70;;;7.07;;
74900;SDS011;63461;51.416;6.758;2023-03-01T04:52:42;13.67;;;6.87;;
74900;SDS011;63461;51.416;6.758;2023-03-01T04:55:09;14.67;;;7.10;;
74900;SDS011;63461;51.416;6.758;2023-03-01T04:57:35;13.47;;;7.20;;
74900;SDS011;63461;51.416;6.758;2023-03-01T05:00:01;17.10;;;7.27;;
74900;SDS011;63461;51.416;6.758;2023-03-01T05:02:58;19.63;;;7.80;;
74900;SDS011;63461;51.416;6.758;2023-03-01T05:07:57;16.77;;;7.73;;
74900;SDS011;63461;51.416;6.758;2023-03-01T05:10:28;15.70;;;9.45;;
74900;SDS011;63461;51.416;6.758;2023-03-01T05:12:55;16.10;;;8.57;;
74900;SDS011;63461;51.416;6.758;2023-03-01T05:15:22;17.20;;;8.10;;
74900;SDS011;63461;51.416;6.758;2023-03-01T05:17:51;17.67;;;7.57;;
74900;SDS011;63461;51.416;6.758;2023-03-01T05:20:17;16.47;;;7.77;;
74900;SDS011;63461;51.416;6.758;2023-03-01T05:22:43;16.90;;;7.23;;
74900;SDS011;63461;51.416;6.758;2023-03-01T05:25:09;17.10;;;7.97;;
74900;SDS011;63461;51.416;6.758;2023-03-01T05:27:35;17.87;;;7.90;;
74900;SDS011;63461;51.416;6.758;2023-03-01T05:30:01;20.13;;;7.80;;
74900;SDS011;63461;51.416;6.758;2023-03-01T05:32:42;16.53;;;7.87;;
74900;SDS011;63461;51.416;6.758;2023-03-01T05:35:13;17.00;;;8.13;;
74900;SDS011;63461;51.416;6.758;2023-03-01T05:37:41;21.80;;;8.43;;
74900;SDS011;63461;51.416;6.758;2023-03-01T05:40:09;20.97;;;7.73;;
74900;SDS011;63461;51.416;6.758;2023-03-01T05:42:46;14.10;;;6.87;;
74900;SDS011;63461;51.416;6.758;2023-03-01T05:45:19;19.10;;;7.93;;
74900;SDS011;63461;51.416;6.758;2023-03-01T05:47:47;15.10;;;7.20;;
74900;SDS011;63461;51.416;6.758;2023-03-01T05:50:15;17.93;;;7.40;;
74900;SDS011;63461;51.416;6.758;2023-03-01T05:52:50;14.97;;;7.37;;
74900;SDS011;63461;51.416;6.758;2023-03-01T05:55:18;21.77;;;8.23;;
74900;SDS011;63461;51.416;6.758;2023-03-01T05:57:46;14.30;;;7.27;;
74900;SDS011;63461;51.416;6.758;2023-03-01T06:00:12;15.37;;;8.30;;
74900;SDS011;63461;51.416;6.758;2023-03-01T06:02:39;18.63;;;7.80;;
74900;SDS011;63461;51.416;6.758;2023-03-01T06:05:07;20.57;;;8.50;;
74900;SDS011;63461;51.416;6.758;2023-03-01T06:07:34;17.70;;;8.67;;
74900;SDS011;63461;51.416;6.758;2023-03-01T06:10:01;20.97;;;8.23;;
74900;SDS011;63461;51.416;6.758;2023-03-01T06:12:35;18.93;;;7.83;;
74900;SDS011;63461;51.416;6.758;2023-03-01T06:15:02;18.83;;;6.73;;
74900;SDS011;63461;51.416;6.758;2023-03-01T06:17:30;18.23;;;8.33;;
74900;SDS011;63461;51.416;6.758;2023-03-01T06:19:57;21.40;;;7.87;;
74900;SDS011;63461;51.416;6.758;2023-03-01T06:22:23;18.73;;;8.00;;
74900;SDS011;63461;51.416;6.758;2023-03-01T06:24:49;15.10;;;7.50;;
74900;SDS011;63461;51.416;6.758;2023-03-01T06:27:15;18.73;;;8.00;;
74900;SDS011;63461;51.416;6.758;2023-03-01T06:29:41;14.77;;;7.57;;
74900;SDS011;63461;51.416;6.758;2023-03-01T06:32:07;16.97;;;7.43;;
74900;SDS011;63461;51.416;6.758;2023-03-01T06:34:33;16.37;;;7.50;;
74900;SDS011;63461;51.416;6.758;2023-03-01T06:36:59;15.90;;;7.73;;
74900;SDS011;63461;51.416;6.758;2023-03-01T06:39:27;13.60;;;7.60;;
74900;SDS011;63461;51.416;6.758;2023-03-01T06:41:53;17.43;;;7.43;;
74900;SDS011;63461;51.416;6.758;2023-03-01T06:44:18;17.57;;;7.70;;
74900;SDS011;63461;51.416;6.758;2023-03-01T06:46:44;18.40;;;7.50;;
74900;SDS011;63461;51.416;6.758;2023-03-01T06:49:10;18.93;;;8.13;;
74900;SDS011;63461;51.416;6.758;2023-03-01T06:51:36;16.33;;;7.53;;
74900;SDS011;63461;51.416;6.758;2023-03-01T06:54:05;16.97;;;7.67;;
74900;SDS011;63461;51.416;6.758;2023-03-01T06:56:31;19.43;;;8.33;;
74900;SDS011;63461;51.416;6.758;2023-03-01T06:58:57;22.13;;;8.00;;
74900;SDS011;63461;51.416;6.758;2023-03-01T07:01:24;16.90;;;8.17;;
74900;SDS011;63461;51.416;6.758;2023-03-01T07:03:49;20.00;;;7.70;;
74900;SDS011;63461;51.416;6.758;2023-03-01T07:06:15;24.20;;;10.83;;
74900;SDS011;63461;51.416;6.758;2023-03-01T07:08:41;23.33;;;9.53;;
74900;SDS011;63461;51.416;6.758;2023-03-01T07:11:07;27.77;;;11.80;;
74900;SDS011;63461;51.416;6.758;2023-03-01T07:13:33;59.33;;;21.00;;
74900;SDS011;63461;51.416;6.758;2023-03-01T07:15:59;27.53;;;11.00;;
74900;SDS011;63461;51.416;6.758;2023-03-01T07:18:24;21.10;;;9.20;;
74900;SDS011;63461;51.416;6.758;2023-03-01T07:20:50;18.70;;;7.97;;
74900;SDS011;63461;51.416;6.758;2023-03-01T07:23:16;21.67;;;9.23;;
74900;SDS011;63461;51.416;6.758;2023-03-01T07:25:42;18.73;;;8.67;;
74900;SDS011;63461;51.416;6.758;2023-03-01T07:28:07;20.23;;;7.83;;
74900;SDS011;63461;51.416;6.758;2023-03-01T07:30:33;49.40;;;16.10;;
74900;SDS011;63461;51.416;6.758;2023-03-01T07:32:59;45.37;;;16.37;;
74900;SDS011;63461;51.416;6.758;2023-03-01T07:35:26;39.90;;;14.30;;
74900;SDS011;63461;51.416;6.758;2023-03-01T07:37:52;24.93;;;9.50;;
74900;SDS011;63461;51.416;6.758;2023-03-01T07:40:18;15.43;;;6.80;;
74900;SDS011;63461;51.416;6.758;2023-03-01T07:42:44;19.20;;;8.10;;
74900;SDS011;63461;51.416;6.758;2023-03-01T07:45:10;15.33;;;8.40;;
74900;SDS011;63461;51.416;6.758;2023-03-01T07:47:36;15.03;;;7.87;;
74900;SDS011;63461;51.416;6.758;2023-03-01T07:50:02;25.73;;;10.73;;
74900;SDS011;63461;51.416;6.758;2023-03-01T07:52:29;24.10;;;8.57;;
74900;SDS011;63461;51.416;6.758;2023-03-01T07:54:56;23.27;;;9.23;;
74900;SDS011;63461;51.416;6.758;2023-03-01T07:57:22;18.57;;;8.47;;
74900;SDS011;63461;51.416;6.758;2023-03-01T07:59:48;17.00;;;8.63;;
74900;SDS011;63461;51.416;6.758;2023-03-01T08:02:14;18.00;;;8.47;;
74900;SDS011;63461;51.416;6.758;2023-03-01T08:04:40;21.90;;;8.27;;
74900;SDS011;63461;51.416;6.758;2023-03-01T08:07:07;19.00;;;8.43;;
74900;SDS011;63461;51.416;6.758;2023-03-01T08:09:36;16.83;;;8.20;;
74900;SDS011;63461;51.416;6.758;2023-03-01T08:12:03;16.00;;;8.73;;
74900;SDS011;63461;51.416;6.758;2023-03-01T08:14:30;19.67;;;8.63;;
74900;SDS011;63461;51.416;6.758;2023-03-01T08:16:57;18.07;;;9.10;;
74900;SDS011;63461;51.416;6.758;2023-03-01T08:19:22;16.80;;;8.30;;
74900;SDS011;63461;51.416;6.758;2023-03-01T08:21:49;18.00;;;8.33;;
74900;SDS011;63461;51.416;6.758;2023-03-01T08:24:14;17.90;;;8.43;;
74900;SDS011;63461;51.416;6.758;2023-03-01T08:26:40;21.47;;;8.60;;
74900;SDS011;63461;51.416;6.758;2023-03-01T08:29:06;17.03;;;8.10;;
74900;SDS011;63461;51.416;6.758;2023-03-01T08:31:33;17.87;;;8.03;;
74900;SDS011;63461;51.416;6.758;2023-03-01T08:34:08;16.97;;;8.00;;
74900;SDS011;63461;51.416;6.758;2023-03-01T08:36:37;19.47;;;8.37;;
74900;SDS011;63461;51.416;6.758;2023-03-01T08:39:05;18.47;;;8.13;;
74900;SDS011;63461;51.416;6.758;2023-03-01T08:41:32;16.93;;;8.00;;
74900;SDS011;63461;51.416;6.758;2023-03-01T08:43:58;25.37;;;10.53;;
74900;SDS011;63461;51.416;6.758;2023-03-01T08:46:31;20.80;;;8.97;;
74900;SDS011;63461;51.416;6.758;2023-03-01T08:48:58;43.23;;;16.27;;
74900;SDS011;63461;51.416;6.758;2023-03-01T08:51:24;39.30;;;16.47;;
74900;SDS011;63461;51.416;6.758;2023-03-01T08:53:51;20.90;;;10.50;;
74900;SDS011;63461;51.416;6.758;2023-03-01T08:56:17;21.50;;;8.67;;
74900;SDS011;63461;51.416;6.758;2023-03-01T08:58:44;19.67;;;8.20;;
74900;SDS011;63461;51.416;6.758;2023-03-01T09:01:15;17.30;;;8.13;;
74900;SDS011;63461;51.416;6.758;2023-03-01T09:03:44;17.77;;;8.43;;
74900;SDS011;63461;51.416;6.758;2023-03-01T09:06:10;14.73;;;7.43;;
74900;SDS011;63461;51.416;6.758;2023-03-01T09:08:37;14.37;;;7.03;;
74900;SDS011;63461;51.416;6.758;2023-03-01T09:11:05;13.33;;;7.40;;
74900;SDS011;63461;51.416;6.758;2023-03-01T09:13:33;16.47;;;7.83;;
74900;SDS011;63461;51.416;6.758;2023-03-01T09:16:00;18.13;;;7.73;;
74900;SDS011;63461;51.416;6.758;2023-03-01T09:18:28;18.23;;;7.87;;
74900;SDS011;63461;51.416;6.758;2023-03-01T09:21:00;19.27;;;7.60;;
74900;SDS011;63461;51.416;6.758;2023-03-01T09:23:34;17.30;;;8.10;;
74900;SDS011;63461;51.416;6.758;2023-03-01T09:26:05;17.90;;;8.07;;
74900;SDS011;63461;51.416;6.758;2023-03-01T09:28:32;15.23;;;6.90;;
74900;SDS011;63461;51.416;6.758;2023-03-01T09:30:58;16.53;;;8.03;;
74900;SDS011;63461;51.416;6.758;2023-03-01T09:33:25;17.10;;;7.97;;
74900;SDS011;63461;51.416;6.758;2023-03-01T09:35:57;17.30;;;8.07;;
74900;SDS011;63461;51.416;6.758;2023-03-01T09:38:24;14.77;;;7.13;;
74900;SDS011;63461;51.416;6.758;2023-03-01T09:40:50;14.10;;;7.67;;
74900;SDS011;63461;51.416;6.758;2023-03-01T09:46:03;19.80;;;8.33;;
74900;SDS011;63461;51.416;6.758;2023-03-01T09:48:34;20.50;;;7.53;;
74900;SDS011;63461;51.416;6.758;2023-03-01T09:51:09;17.37;;;7.43;;
74900;SDS011;63461;51.416;6.758;2023-03-01T09:53:42;15.23;;;7.67;;
74900;SDS011;63461;51.416;6.758;2023-03-01T09:59:17;17.07;;;8.37;;
74900;SDS011;63461;51.416;6.758;2023-03-01T10:11:17;15.40;;;7.37;;
74900;SDS011;63461;51.416;6.758;2023-03-01T10:13:48;13.93;;;6.27;;
74900;SDS011;63461;51.416;6.758;2023-03-01T10:16:21;19.60;;;7.80;;
74900;SDS011;63461;51.416;6.758;2023-03-01T10:18:57;15.60;;;6.80;;
74900;SDS011;63461;51.416;6.758;2023-03-01T10:21:26;17.97;;;6.03;;
74900;SDS011;63461;51.416;6.758;2023-03-01T10:23:53;15.70;;;7.23;;
74900;SDS011;63461;51.416;6.758;2023-03-01T10:26:23;14.47;;;7.03;;
74900;SDS011;63461;51.416;6.758;2023-03-01T10:29:03;13.20;;;6.60;;
74900;SDS011;63461;51.416;6.758;2023-03-01T10:34:20;13.93;;;6.60;;
74900;SDS011;63461;51.416;6.758;2023-03-01T10:36:49;18.80;;;6.63;;
74900;SDS011;63461;51.416;6.758;2023-03-01T10:39:20;13.43;;;6.67;;
74900;SDS011;63461;51.416;6.758;2023-03-01T10:42:00;16.13;;;7.57;;
74900;SDS011;63461;51.416;6.758;2023-03-01T10:44:36;13.90;;;7.13;;
74900;SDS011;63461;51.416;6.758;2023-03-01T10:47:12;16.33;;;5.93;;
74900;SDS011;63461;51.416;6.758;2023-03-01T10:52:20;13.27;;;6.33;;
74900;SDS011;63461;51.416;6.758;2023-03-01T10:54:52;15.77;;;6.23;;
74900;SDS011;63461;51.416;6.758;2023-03-01T10:57:30;12.57;;;6.30;;
74900;SDS011;63461;51.416;6.758;2023-03-01T11:00:20;13.03;;;6.00;;
74900;SDS011;63461;51.416;6.758;2023-03-01T11:02:49;13.40;;;6.40;;
74900;SDS011;63461;51.416;6.758;2023-03-01T11:05:26;15.77;;;6.03;;
74900;SDS011;63461;51.416;6.758;2023-03-01T11:07:59;17.47;;;6.87;;
74900;SDS011;63461;51.416;6.758;2023-03-01T11:10:30;16.17;;;6.80;;
74900;SDS011;63461;51.416;6.758;2023-03-01T11:13:08;15.10;;;6.50;;
74900;SDS011;63461;51.416;6.758;2023-03-01T11:15:40;21.37;;;8.00;;
74900;SDS011;63461;51.416;6.758;2023-03-01T11:18:18;13.70;;;6.40;;
74900;SDS011;63461;51.416;6.758;2023-03-01T11:20:46;12.90;;;6.33;;
74900;SDS011;63461;51.416;6.758;2023-03-01T11:23:13;14.43;;;6.00;;
74900;SDS011;63461;51.416;6.758;2023-03-01T11:25:41;15.87;;;6.63;;
74900;SDS011;63461;51.416;6.758;2023-03-01T11:28:19;22.77;;;7.70;;
74900;SDS011;63461;51.416;6.758;2023-03-01T11:36:20;10.40;;;5.50;;
74900;SDS011;63461;51.416;6.758;2023-03-01T11:38:52;9.33;;;4.83;;
74900;SDS011;63461;51.416;6.758;2023-03-01T11:41:20;12.57;;;5.60;;
74900;SDS011;63461;51.416;6.758;2023-03-01T12:02:53;10.47;;;5.23;;
74900;SDS011;63461;51.416;6.758;2023-03-01T12:08:17;12.33;;;5.47;;
74900;SDS011;63461;51.416;6.758;2023-03-01T12:27:37;12.13;;;5.10;;
74900;SDS011;63461;51.416;6.758;2023-03-01T12:30:32;11.97;;;4.73;;
74900;SDS011;63461;51.416;6.758;2023-03-01T12:33:21;8.90;;;4.10;;
74900;SDS011;63461;51.416;6.758;2023-03-01T12:38:41;11.93;;;5.47;;
74900;SDS011;63461;51.416;6.758;2023-03-01T12:49:13;11.87;;;4.40;;
74900;SDS011;63461;51.416;6.758;2023-03-01T12:51:51;10.97;;;4.73;;
74900;SDS011;63461;51.416;6.758;2023-03-01T12:54:35;12.17;;;5.00;;
74900;SDS011;63461;51.416;6.758;2023-03-01T12:57:05;10.63;;;5.03;;
74900;SDS011;63461;51.416;6.758;2023-03-01T13:05:19;11.53;;;5.60;;
74900;SDS011;63461;51.416;6.758;2023-03-01T13:10:49;13.13;;;5.20;;
74900;SDS011;63461;51.416;6.758;2023-03-01T13:15:51;7.70;;;3.43;;
74900;SDS011;63461;51.416;6.758;2023-03-01T13:26:00;8.50;;;4.50;;
74900;SDS011;63461;51.416;6.758;2023-03-01T13:31:06;9.43;;;4.80;;
74900;SDS011;63461;51.416;6.758;2023-03-01T13:33:38;11.43;;;5.30;;
74900;SDS011;63461;51.416;6.758;2023-03-01T13:36:09;10.30;;;5.10;;
74900;SDS011;63461;51.416;6.758;2023-03-01T13:38:46;11.50;;;5.30;;
74900;SDS011;63461;51.416;6.758;2023-03-01T13:44:26;9.40;;;4.27;;
74900;SDS011;63461;51.416;6.758;2023-03-01T13:46:59;12.53;;;4.00;;
74900;SDS011;63461;51.416;6.758;2023-03-01T13:57:47;10.10;;;4.63;;
74900;SDS011;63461;51.416;6.758;2023-03-01T14:03:15;10.43;;;4.73;;
74900;SDS011;63461;51.416;6.758;2023-03-01T14:05:56;9.70;;;5.40;;
74900;SDS011;63461;51.416;6.758;2023-03-01T14:08:25;12.87;;;4.90;;
74900;SDS011;63461;51.416;6.758;2023-03-01T14:13:47;9.90;;;4.27;;
74900;SDS011;63461;51.416;6.758;2023-03-01T14:18:59;12.87;;;5.20;;
74900;SDS011;63461;51.416;6.758;2023-03-01T14:21:26;15.20;;;5.20;;
74900;SDS011;63461;51.416;6.758;2023-03-01T14:23:52;10.40;;;5.33;;
74900;SDS011;63461;51.416;6.758;2023-03-01T14:26:21;12.30;;;5.47;;
74900;SDS011;63461;51.416;6.758;2023-03-01T14:28:48;10.70;;;5.07;;
74900;SDS011;63461;51.416;6.758;2023-03-01T14:34:04;13.83;;;6.60;;
74900;SDS011;63461;51.416;6.758;2023-03-01T14:36:32;15.63;;;7.30;;
74900;SDS011;63461;51.416;6.758;2023-03-01T14:38:59;13.53;;;6.00;;
74900;SDS011;63461;51.416;6.758;2023-03-01T14:41:31;14.17;;;6.60;;
74900;SDS011;63461;51.416;6.758;2023-03-01T14:44:01;15.40;;;6.20;;
74900;SDS011;63461;51.416;6.758;2023-03-01T14:49:03;15.27;;;7.37;;
74900;SDS011;63461;51.416;6.758;2023-03-01T14:51:54;12.73;;;6.00;;
74900;SDS011;63461;51.416;6.758;2023-03-01T14:54:29;8.30;;;4.20;;
74900;SDS011;63461;51.416;6.758;2023-03-01T14:57:00;16.37;;;6.27;;
74900;SDS011;63461;51.416;6.758;2023-03-01T14:59:27;12.50;;;5.97;;
74900;SDS011;63461;51.416;6.758;2023-03-01T15:01:56;21.50;;;7.13;;
74900;SDS011;63461;51.416;6.758;2023-03-01T15:04:23;20.30;;;8.27;;
74900;SDS011;63461;51.416;6.758;2023-03-01T15:06:51;14.30;;;6.70;;
74900;SDS011;63461;51.416;6.758;2023-03-01T15:09:19;12.03;;;6.03;;
74900;SDS011;63461;51.416;6.758;2023-03-01T15:11:45;31.13;;;11.77;;
74900;SDS011;63461;51.416;6.758;2023-03-01T15:19:58;17.53;;;7.30;;
74900;SDS011;63461;51.416;6.758;2023-03-01T15:22:25;14.53;;;5.90;;
74900;SDS011;63461;51.416;6.758;2023-03-01T15:24:52;15.73;;;6.33;;
74900;SDS011;63461;51.416;6.758;2023-03-01T15:27:19;17.50;;;6.87;;
74900;SDS011;63461;51.416;6.758;2023-03-01T15:29:48;15.50;;;6.83;;
74900;SDS011;63461;51.416;6.758;2023-03-01T15:34:55;18.43;;;6.47;;
74900;SDS011;63461;51.416;6.758;2023-03-01T15:37:43;13.23;;;5.83;;
74900;SDS011;63461;51.416;6.758;2023-03-01T15:40:25;13.50;;;6.17;;
74900;SDS011;63461;51.416;6.758;2023-03-01T15:42:57;15.00;;;7.03;;
74900;SDS011;63461;51.416;6.758;2023-03-01T15:45:25;14.77;;;6.20;;
74900;SDS011;63461;51.416;6.758;2023-03-01T15:48:13;12.27;;;5.60;;
74900;SDS011;63461;51.416;6.758;2023-03-01T15:50:42;13.60;;;6.03;;
74900;SDS011;63461;51.416;6.758;2023-03-01T15:53:11;13.30;;;5.67;;
74900;SDS011;63461;51.416;6.758;2023-03-01T15:55:39;16.23;;;5.63;;
74900;SDS011;63461;51.416;6.758;2023-03-01T15:58:06;15.40;;;6.00;;
74900;SDS011;63461;51.416;6.758;2023-03-01T16:00:37;13.97;;;6.00;;
74900;SDS011;63461;51.416;6.758;2023-03-01T16:03:04;14.13;;;6.73;;
74900;SDS011;63461;51.416;6.758;2023-03-01T16:05:32;12.30;;;5.80;;
74900;SDS011;63461;51.416;6.758;2023-03-01T16:08:02;12.80;;;6.20;;
74900;SDS011;63461;51.416;6.758;2023-03-01T16:10:28;14.93;;;5.60;;
74900;SDS011;63461;51.416;6.758;2023-03-01T16:12:56;13.70;;;5.63;;
74900;SDS011;63461;51.416;6.758;2023-03-01T16:15:23;13.37;;;6.43;;
74900;SDS011;63461;51.416;6.758;2023-03-01T16:17:52;13.70;;;6.10;;
74900;SDS011;63461;51.416;6.758;2023-03-01T16:20:22;11.60;;;6.33;;
74900;SDS011;63461;51.416;6.758;2023-03-01T16:22:48;11.13;;;5.37;;
74900;SDS011;63461;51.416;6.758;2023-03-01T16:25:14;12.27;;;5.60;;
74900;SDS011;63461;51.416;6.758;2023-03-01T16:27:42;15.23;;;6.70;;
74900;SDS011;63461;51.416;6.758;2023-03-01T16:30:09;12.03;;;5.63;;
74900;SDS011;63461;51.416;6.758;2023-03-01T16:32:39;11.50;;;5.07;;
74900;SDS011;63461;51.416;6.758;2023-03-01T16:35:07;14.40;;;5.63;;
74900;SDS011;63461;51.416;6.758;2023-03-01T16:37:34;9.80;;;5.23;;
74900;SDS011;63461;51.416;6.758;2023-03-01T16:40:01;11.00;;;4.50;;
74900;SDS011;63461;51.416;6.758;2023-03-01T16:42:33;10.90;;;5.17;;
74900;SDS011;63461;51.416;6.758;2023-03-01T16:45:05;12.87;;;5.53;;
74900;SDS011;63461;51.416;6.758;2023-03-01T16:47:33;14.20;;;5.17;;
74900;SDS011;63461;51.416;6.758;2023-03-01T16:49:59;24.90;;;3.27;;
74900;SDS011;63461;51.416;6.758;2023-03-01T16:52:25;11.27;;;4.90;;
74900;SDS011;63461;51.416;6.758;2023-03-01T16:54:51;10.10;;;5.00;;
74900;SDS011;63461;51.416;6.758;2023-03-01T16:57:17;9.07;;;4.87;;
74900;SDS011;63461;51.416;6.758;2023-03-01T16:59:43;11.10;;;5.30;;
74900;SDS011;63461;51.416;6.758;2023-03-01T17:02:12;12.87;;;5.17;;
74900;SDS011;63461;51.416;6.758;2023-03-01T17:04:40;12.47;;;5.00;;